createdAt,value
2019-05-20T00:01:31.237Z,24.10
2019-05-20T00:03:59.879Z,20.50
2019-05-20T00:06:28.552Z,21.20
2019-05-20T00:08:57.209Z,21.20
2019-05-20T00:11:25.866Z,20.60
2019-05-20T00:13:54.499Z,20.50
2019-05-20T00:16:23.088Z,27.13
2019-05-20T00:18:51.725Z,20.83
2019-05-20T00:21:20.312Z,20.47
2019-05-20T00:23:48.960Z,21.50
2019-05-20T00:26:17.536Z,22.00
2019-05-20T00:28:46.161Z,24.30
2019-05-20T00:31:14.773Z,22.43
2019-05-20T00:33:43.438Z,21.80
2019-05-20T00:36:12.216Z,20.03
2019-05-20T00:38:41.198Z,23.00
2019-05-20T00:41:09.800Z,20.70
2019-05-20T00:43:38.465Z,21.47
2019-05-20T00:46:07.060Z,21.70
2019-05-20T00:48:35.704Z,26.83
2019-05-20T00:51:04.339Z,23.67
2019-05-20T00:53:32.952Z,22.67
2019-05-20T00:56:01.559Z,22.87
2019-05-20T00:58:30.345Z,22.83
2019-05-20T01:00:58.982Z,21.63
2019-05-20T01:03:27.673Z,22.60
2019-05-20T01:05:56.265Z,25.80
2019-05-20T01:08:24.927Z,24.13
2019-05-20T01:10:53.507Z,23.17
2019-05-20T01:13:22.191Z,21.30
2019-05-20T01:15:50.790Z,21.27
2019-05-20T01:18:19.558Z,26.33
2019-05-20T01:20:48.162Z,22.53
2019-05-20T01:23:16.838Z,23.30
2019-05-20T01:25:45.437Z,21.50
2019-05-20T01:28:14.061Z,21.97
2019-05-20T01:30:42.530Z,22.20
2019-05-20T01:33:14.268Z,25.83
2019-05-20T01:35:42.622Z,21.43
2019-05-20T01:38:11.255Z,23.47
2019-05-20T01:40:39.832Z,20.97
2019-05-20T01:43:08.460Z,21.43
2019-05-20T01:45:37.894Z,22.87
2019-05-20T01:48:06.627Z,22.73
2019-05-20T01:50:35.213Z,20.90
2019-05-20T01:53:03.876Z,21.10
2019-05-20T01:55:32.515Z,21.23
2019-05-20T01:58:01.186Z,24.80
2019-05-20T02:00:29.762Z,24.23
2019-05-20T02:02:58.456Z,21.00
2019-05-20T02:05:27.077Z,22.97
2019-05-20T02:07:55.797Z,21.90
2019-05-20T02:10:24.458Z,21.27
2019-05-20T02:12:53.106Z,21.73
2019-05-20T02:15:32.102Z,23.90
2019-05-20T02:18:00.815Z,24.30
2019-05-20T02:20:29.395Z,22.50
2019-05-20T02:23:02.431Z,27.40
2019-05-20T02:25:31.072Z,20.97
2019-05-20T02:27:59.693Z,21.37
2019-05-20T02:30:28.351Z,21.30
2019-05-20T02:32:56.985Z,20.47
2019-05-20T02:35:25.585Z,20.80
2019-05-20T02:37:54.209Z,22.23
2019-05-20T02:40:22.855Z,22.40
2019-05-20T02:42:51.513Z,21.87
2019-05-20T02:45:20.086Z,23.33
2019-05-20T02:47:48.759Z,21.67
2019-05-20T02:50:17.498Z,20.93
2019-05-20T02:52:46.148Z,23.47
2019-05-20T02:55:14.804Z,20.33
2019-05-20T02:57:43.529Z,21.30
2019-05-20T03:00:12.525Z,21.23
2019-05-20T03:02:41.188Z,22.47
2019-05-20T03:05:10.115Z,21.87
2019-05-20T03:07:38.752Z,20.37
2019-05-20T03:10:07.488Z,20.10
2019-05-20T03:12:36.149Z,28.73
2019-05-20T03:15:06.309Z,22.47
2019-05-20T03:17:34.962Z,19.97
2019-05-20T03:20:05.030Z,22.40
2019-05-20T03:22:33.630Z,31.10
2019-05-20T03:25:02.300Z,21.60
2019-05-20T03:27:30.947Z,23.97
2019-05-20T03:29:59.551Z,20.03
2019-05-20T03:32:28.172Z,21.77
2019-05-20T03:34:59.887Z,20.90
2019-05-20T03:37:27.097Z,20.67
2019-05-20T03:39:55.687Z,21.77
2019-05-20T03:42:24.462Z,21.23
2019-05-20T03:44:53.198Z,20.57
2019-05-20T03:47:21.860Z,23.43
2019-05-20T03:49:50.445Z,21.17
2019-05-20T03:52:19.164Z,22.73
2019-05-20T03:54:47.743Z,24.67
2019-05-20T03:57:16.448Z,20.30
2019-05-20T03:59:45.801Z,20.83
2019-05-20T04:02:14.561Z,20.10
2019-05-20T04:05:00.705Z,19.90
2019-05-20T04:07:13.513Z,24.83
2019-05-20T04:09:42.119Z,21.77
2019-05-20T04:12:10.741Z,20.63
2019-05-20T04:14:39.341Z,20.70
2019-05-20T04:17:07.959Z,22.20
2019-05-20T04:19:36.560Z,20.27
2019-05-20T04:22:05.205Z,23.73
2019-05-20T04:24:33.868Z,23.70
2019-05-20T04:27:02.501Z,21.50
2019-05-20T04:29:31.161Z,22.73
2019-05-20T04:31:59.839Z,25.03
2019-05-20T04:34:28.453Z,21.43
2019-05-20T04:36:57.209Z,23.13
2019-05-20T04:39:25.792Z,23.10
2019-05-20T04:41:54.534Z,22.40
2019-05-20T04:44:23.144Z,24.30
2019-05-20T04:46:51.768Z,23.50
2019-05-20T04:49:20.383Z,25.30
2019-05-20T04:51:49.016Z,23.80
2019-05-20T04:54:17.652Z,23.30
2019-05-20T04:56:46.255Z,21.47
2019-05-20T04:59:14.895Z,24.93
2019-05-20T05:01:43.478Z,25.27
2019-05-20T05:04:12.120Z,25.30
2019-05-20T05:06:42.248Z,22.07
2019-05-20T05:09:10.937Z,22.67
2019-05-20T05:11:39.506Z,24.87
2019-05-20T05:14:08.211Z,22.70
2019-05-20T05:16:36.773Z,27.33
2019-05-20T05:19:05.461Z,25.30
2019-05-20T05:21:34.277Z,23.57
2019-05-20T05:24:02.950Z,28.57
2019-05-20T05:26:31.579Z,22.47
2019-05-20T05:29:02.028Z,23.97
2019-05-20T05:31:30.661Z,22.70
2019-05-20T05:33:59.235Z,21.30
2019-05-20T05:36:27.934Z,25.73
2019-05-20T05:38:56.667Z,22.93
2019-05-20T05:41:25.345Z,25.60
2019-05-20T05:43:53.954Z,26.03
2019-05-20T05:46:22.642Z,25.27
2019-05-20T05:48:51.280Z,23.03
2019-05-20T05:51:20.014Z,24.33
2019-05-20T05:53:48.609Z,26.20
2019-05-20T05:56:17.592Z,25.47
2019-05-20T05:58:46.237Z,21.93
2019-05-20T06:01:14.973Z,22.97
2019-05-20T06:03:43.542Z,25.10
2019-05-20T06:06:13.498Z,21.60
2019-05-20T06:08:42.337Z,24.43
2019-05-20T06:11:11.036Z,25.23
2019-05-20T06:13:39.616Z,19.80
2019-05-20T06:16:08.301Z,22.17
2019-05-20T06:18:36.871Z,20.30
2019-05-20T06:21:05.835Z,23.00
2019-05-20T06:23:34.439Z,21.90
2019-05-20T06:26:03.180Z,20.20
2019-05-20T06:28:31.750Z,20.40
2019-05-20T06:31:00.443Z,18.83
2019-05-20T06:33:29.114Z,23.53
2019-05-20T06:35:57.704Z,23.27
2019-05-20T06:38:36.708Z,25.30
2019-05-20T06:41:07.116Z,19.60
2019-05-20T06:43:35.683Z,18.00
2019-05-20T06:46:05.082Z,20.67
2019-05-20T06:48:34.819Z,18.33
2019-05-20T06:51:03.504Z,18.97
2019-05-20T06:53:32.089Z,16.70
2019-05-20T06:56:00.834Z,20.40
2019-05-20T06:58:29.447Z,16.03
2019-05-20T07:00:58.139Z,19.63
2019-05-20T07:03:26.729Z,21.63
2019-05-20T07:05:55.469Z,23.33
2019-05-20T07:08:24.064Z,22.23
2019-05-20T07:10:52.685Z,20.63
2019-05-20T07:13:21.262Z,21.40
2019-05-20T07:15:49.952Z,17.43
2019-05-20T07:18:18.591Z,23.40
2019-05-20T07:20:47.344Z,16.50
2019-05-20T07:23:15.943Z,21.90
2019-05-20T07:25:44.591Z,15.33
2019-05-20T07:28:13.243Z,21.60
2019-05-20T07:30:41.941Z,16.43
2019-05-20T07:33:10.590Z,22.93
2019-05-20T07:35:39.284Z,17.80
2019-05-20T07:38:07.902Z,16.90
2019-05-20T07:40:36.618Z,16.33
2019-05-20T07:43:06.595Z,18.90
2019-05-20T07:45:35.687Z,17.33
2019-05-20T07:48:05.250Z,18.50
2019-05-20T07:50:35.436Z,17.07
2019-05-20T07:53:05.378Z,15.47
2019-05-20T07:55:37.213Z,13.70
2019-05-20T07:58:07.448Z,14.13
2019-05-20T08:00:36.764Z,12.77
2019-05-20T08:03:05.703Z,13.70
2019-05-20T08:05:34.299Z,11.30
2019-05-20T08:08:03.178Z,12.00
2019-05-20T08:10:31.769Z,12.33
2019-05-20T08:13:00.513Z,11.37
2019-05-20T08:15:29.243Z,19.57
2019-05-20T08:17:57.871Z,14.30
2019-05-20T08:20:26.451Z,11.60
2019-05-20T08:22:55.063Z,18.37
2019-05-20T08:25:23.700Z,18.93
2019-05-20T08:27:52.378Z,15.60
2019-05-20T08:30:36.119Z,12.80
2019-05-20T08:33:05.346Z,11.80
2019-05-20T08:35:33.990Z,8.80
2019-05-20T08:38:02.629Z,10.10
2019-05-20T08:40:31.344Z,14.20
2019-05-20T08:42:59.992Z,10.43
2019-05-20T08:45:28.661Z,10.80
2019-05-20T08:47:57.293Z,16.03
2019-05-20T08:50:25.936Z,10.13
2019-05-20T08:52:54.614Z,10.00
2019-05-20T08:55:23.266Z,14.23
2019-05-20T08:57:52.014Z,8.70
2019-05-20T09:00:24.232Z,10.73
2019-05-20T09:02:53.434Z,9.10
2019-05-20T09:05:22.060Z,13.33
2019-05-20T09:08:02.228Z,16.90
2019-05-20T09:10:21.054Z,11.30
2019-05-20T09:12:49.695Z,8.23
2019-05-20T09:15:18.861Z,10.87
2019-05-20T09:17:47.504Z,8.40
2019-05-20T09:20:16.474Z,10.27
2019-05-20T09:22:45.151Z,7.20
2019-05-20T09:25:14.398Z,7.03
2019-05-20T09:27:43.263Z,10.93
2019-05-20T09:30:13.264Z,6.83
2019-05-20T09:32:43.175Z,5.77
2019-05-20T09:35:12.582Z,7.67
2019-05-20T09:37:41.231Z,7.37
2019-05-20T09:40:10.094Z,6.37
2019-05-20T09:42:41.078Z,6.53
2019-05-20T09:45:09.985Z,10.43
2019-05-20T09:47:38.699Z,6.50
2019-05-20T09:50:07.532Z,8.63
2019-05-20T09:52:36.266Z,10.17
2019-05-20T09:55:07.059Z,7.43
2019-05-20T09:57:35.767Z,6.63
2019-05-20T10:00:10.372Z,9.73
2019-05-20T10:02:39.018Z,7.63
2019-05-20T10:05:07.666Z,9.50
2019-05-20T10:07:36.325Z,8.53
2019-05-20T10:10:08.387Z,6.53
2019-05-20T10:12:45.921Z,8.50
2019-05-20T10:15:08.665Z,9.30
2019-05-20T10:17:37.399Z,7.10
2019-05-20T10:20:29.643Z,11.30
2019-05-20T10:22:58.328Z,7.23
2019-05-20T10:25:26.925Z,6.90
2019-05-20T10:27:57.718Z,7.93
2019-05-20T10:30:26.123Z,6.07
2019-05-20T10:32:54.727Z,6.50
2019-05-20T10:35:23.466Z,8.00
2019-05-20T10:37:52.124Z,15.23
2019-05-20T10:40:20.753Z,5.77
2019-05-20T10:42:49.399Z,8.60
2019-05-20T10:45:18.686Z,9.20
2019-05-20T10:47:47.485Z,8.33
2019-05-20T10:50:16.110Z,11.63
2019-05-20T10:52:44.770Z,7.70
2019-05-20T10:55:13.713Z,8.20
2019-05-20T10:57:42.352Z,7.43
2019-05-20T11:00:12.466Z,6.50
2019-05-20T11:02:41.180Z,6.10
2019-05-20T11:05:11.755Z,6.53
2019-05-20T11:07:40.488Z,6.77
2019-05-20T11:10:09.516Z,10.80
2019-05-20T11:12:38.205Z,8.50
2019-05-20T11:15:07.404Z,7.93
2019-05-20T11:17:36.133Z,6.57
2019-05-20T11:20:07.015Z,6.60
2019-05-20T11:22:35.629Z,5.30
2019-05-20T11:25:06.899Z,5.70
2019-05-20T11:27:35.591Z,6.50
2019-05-20T11:30:08.666Z,8.00
2019-05-20T11:32:37.791Z,6.60
2019-05-20T11:35:07.535Z,11.40
2019-05-20T11:37:36.184Z,5.87
2019-05-20T11:40:09.660Z,7.57
2019-05-20T11:42:38.756Z,12.00
2019-05-20T11:45:08.181Z,6.03
2019-05-20T11:47:36.936Z,15.07
2019-05-20T11:50:08.677Z,7.53
2019-05-20T11:52:37.446Z,8.20
2019-05-20T11:55:06.575Z,6.90
2019-05-20T11:57:35.441Z,9.43
2019-05-20T12:00:07.245Z,6.63
2019-05-20T12:02:35.972Z,6.53
2019-05-20T12:05:09.902Z,8.60
2019-05-20T12:07:38.485Z,7.73
2019-05-20T12:10:08.213Z,6.27
2019-05-20T12:12:36.853Z,9.47
2019-05-20T12:15:08.352Z,10.07
2019-05-20T12:17:37.366Z,8.20
2019-05-20T12:20:09.864Z,6.57
2019-05-20T12:22:38.424Z,8.60
2019-05-20T12:25:07.591Z,7.00
2019-05-20T12:27:36.220Z,10.17
2019-05-20T12:30:06.145Z,6.20
2019-05-20T12:32:34.837Z,12.40
2019-05-20T12:35:06.938Z,7.40
2019-05-20T12:37:35.600Z,8.30
2019-05-20T12:40:07.450Z,7.43
2019-05-20T12:42:36.168Z,19.20
2019-05-20T12:45:06.908Z,8.97
2019-05-20T12:47:35.571Z,7.67
2019-05-20T12:50:08.620Z,12.47
2019-05-20T12:52:37.396Z,8.23
2019-05-20T12:55:09.585Z,6.27
2019-05-20T12:57:37.426Z,9.93
2019-05-20T13:00:11.325Z,9.93
2019-05-20T13:02:43.398Z,6.90
2019-05-20T13:05:12.651Z,8.33
2019-05-20T13:07:41.360Z,7.17
2019-05-20T13:10:26.881Z,8.20
2019-05-20T13:12:40.749Z,7.40
2019-05-20T13:15:10.649Z,20.40
2019-05-20T13:17:44.214Z,8.70
2019-05-20T13:20:10.915Z,11.67
2019-05-20T13:22:39.524Z,7.73
2019-05-20T13:25:08.272Z,8.10
2019-05-20T13:27:36.883Z,8.70
2019-05-20T13:30:08.975Z,19.93
2019-05-20T13:32:37.566Z,8.93
2019-05-20T13:35:07.388Z,9.50
2019-05-20T13:37:36.070Z,14.73
2019-05-20T13:40:05.838Z,12.53
2019-05-20T13:42:34.449Z,10.67
2019-05-20T13:45:03.037Z,11.03
2019-05-20T13:47:31.674Z,9.73
2019-05-20T13:50:00.292Z,12.83
2019-05-20T13:52:28.962Z,14.33
2019-05-20T13:54:57.645Z,13.63
2019-05-20T13:57:26.300Z,10.10
2019-05-20T13:59:54.887Z,12.93
2019-05-20T14:02:23.545Z,11.83
2019-05-20T14:04:52.211Z,11.23
2019-05-20T14:07:20.841Z,10.80
2019-05-20T14:09:49.415Z,8.53
2019-05-20T14:12:18.078Z,12.80
2019-05-20T14:14:49.767Z,11.73
2019-05-20T14:17:18.360Z,10.50
2019-05-20T14:19:46.982Z,11.07
2019-05-20T14:22:15.592Z,12.00
2019-05-20T14:24:44.179Z,12.00
2019-05-20T14:27:12.819Z,14.40
2019-05-20T14:29:41.384Z,10.47
2019-05-20T14:32:10.022Z,13.80
2019-05-20T14:34:38.591Z,13.23
2019-05-20T14:37:07.258Z,11.47
2019-05-20T14:39:35.940Z,13.17
2019-05-20T14:42:04.730Z,15.43
2019-05-20T14:44:33.331Z,13.57
2019-05-20T14:47:02.550Z,17.37
2019-05-20T14:49:31.164Z,12.30
2019-05-20T14:52:00.352Z,18.03
2019-05-20T14:54:28.934Z,12.47
2019-05-20T14:56:57.575Z,15.43
2019-05-20T14:59:26.238Z,14.63
2019-05-20T15:01:54.905Z,17.80
2019-05-20T15:04:23.507Z,20.57
2019-05-20T15:06:52.159Z,17.90
2019-05-20T15:09:20.847Z,19.83
2019-05-20T15:11:56.534Z,27.90
2019-05-20T15:14:30.496Z,22.07
2019-05-20T15:16:59.212Z,19.13
2019-05-20T15:19:27.869Z,16.60
2019-05-20T15:21:56.528Z,24.43
2019-05-20T15:24:25.105Z,20.40
2019-05-20T15:26:53.814Z,24.00
2019-05-20T15:29:28.011Z,35.30
2019-05-20T15:31:52.856Z,36.23
2019-05-20T15:34:21.523Z,34.77
2019-05-20T15:36:50.159Z,29.67
2019-05-20T15:39:18.760Z,19.20
2019-05-20T15:41:48.192Z,17.73
2019-05-20T15:44:16.970Z,23.50
2019-05-20T15:46:45.629Z,32.10
2019-05-20T15:49:14.336Z,19.67
2019-05-20T15:51:42.941Z,10.17
2019-05-20T15:54:11.556Z,11.40
2019-05-20T15:56:40.212Z,19.40
2019-05-20T15:59:09.127Z,12.80
2019-05-20T16:01:37.816Z,16.17
2019-05-20T16:04:06.572Z,49.10
2019-05-20T16:06:35.136Z,33.43
2019-05-20T16:09:04.760Z,41.93
2019-05-20T16:11:33.396Z,46.07
2019-05-20T16:14:02.081Z,27.93
2019-05-20T16:16:30.845Z,11.40
2019-05-20T16:18:59.499Z,14.13
2019-05-20T16:21:30.412Z,12.00
2019-05-20T16:24:03.990Z,17.40
2019-05-20T16:26:41.564Z,10.97
2019-05-20T16:29:20.525Z,10.27
2019-05-20T16:31:55.890Z,10.20
2019-05-20T16:34:28.849Z,11.17
2019-05-20T16:37:06.130Z,25.83
2019-05-20T16:39:42.335Z,14.63
2019-05-20T16:42:13.983Z,14.50
2019-05-20T16:44:42.562Z,14.70
2019-05-20T16:47:12.871Z,13.50
2019-05-20T16:49:41.468Z,13.93
2019-05-20T16:52:10.218Z,17.30
2019-05-20T16:54:38.925Z,13.50
2019-05-20T16:57:07.656Z,13.50
2019-05-20T16:59:36.254Z,13.07
2019-05-20T17:02:04.948Z,14.03
2019-05-20T17:04:33.597Z,15.40
2019-05-20T17:07:02.537Z,17.00
2019-05-20T17:09:31.223Z,14.30
2019-05-20T17:12:00.097Z,13.90
2019-05-20T17:14:30.423Z,20.93
2019-05-20T17:16:59.212Z,17.83
2019-05-20T17:19:30.807Z,15.47
2019-05-20T17:21:59.478Z,17.23
2019-05-20T17:24:28.147Z,18.13
2019-05-20T17:26:56.761Z,19.23
2019-05-20T17:29:25.506Z,20.23
2019-05-20T17:31:54.317Z,27.27
2019-05-20T17:34:23.194Z,20.80
2019-05-20T17:36:52.176Z,19.50
2019-05-20T17:39:21.186Z,22.10
2019-05-20T17:41:50.122Z,27.00
2019-05-20T17:44:19.149Z,21.20
2019-05-20T17:46:48.150Z,25.13
2019-05-20T17:49:27.765Z,24.03
2019-05-20T17:51:56.782Z,24.40
2019-05-20T17:54:25.742Z,24.33
2019-05-20T17:56:54.780Z,23.50
2019-05-20T17:59:23.760Z,25.47
2019-05-20T18:01:53.562Z,22.43
2019-05-20T18:04:22.536Z,25.57
2019-05-20T18:06:51.563Z,22.47
2019-05-20T18:09:21.204Z,21.20
2019-05-20T18:11:50.257Z,17.20
2019-05-20T18:14:19.817Z,25.93
2019-05-20T18:16:49.347Z,18.30
2019-05-20T18:19:18.339Z,17.60
2019-05-20T18:21:47.764Z,17.73
2019-05-20T18:24:16.811Z,18.80
2019-05-20T18:26:45.750Z,19.73
2019-05-20T18:29:14.792Z,19.40
2019-05-20T18:31:43.789Z,27.03
2019-05-20T18:34:14.446Z,22.03
2019-05-20T18:36:43.441Z,23.10
2019-05-20T18:39:12.568Z,29.77
2019-05-20T18:41:41.623Z,30.00
2019-05-20T18:44:13.277Z,25.87
2019-05-20T18:46:41.436Z,29.00
2019-05-20T18:49:10.437Z,22.43
2019-05-20T18:51:39.479Z,26.13
2019-05-20T18:54:08.484Z,21.53
2019-05-20T18:56:37.620Z,24.50
2019-05-20T18:59:06.675Z,26.90
2019-05-20T19:01:50.543Z,22.63
2019-05-20T19:04:07.908Z,37.30
2019-05-20T19:06:36.990Z,26.47
2019-05-20T19:09:07.399Z,28.10
2019-05-20T19:11:36.427Z,22.53
2019-05-20T19:14:08.281Z,23.73
2019-05-20T19:16:36.268Z,22.33
2019-05-20T19:19:05.325Z,22.23
2019-05-20T19:21:34.338Z,23.10
2019-05-20T19:24:03.369Z,22.10
2019-05-20T19:26:32.371Z,19.67
2019-05-20T19:29:01.386Z,24.80
2019-05-20T19:31:30.333Z,32.67
2019-05-20T19:33:59.375Z,21.10
2019-05-20T19:36:28.399Z,24.03
2019-05-20T19:38:57.333Z,21.67
2019-05-20T19:41:26.354Z,18.97
2019-05-20T19:43:55.387Z,19.60
2019-05-20T19:46:24.377Z,19.07
2019-05-20T19:48:53.470Z,15.53
2019-05-20T19:51:22.440Z,21.77
2019-05-20T19:53:51.390Z,20.53
2019-05-20T19:56:20.338Z,15.80
2019-05-20T19:58:49.351Z,17.40
2019-05-20T20:01:18.305Z,18.90
2019-05-20T20:03:47.238Z,20.47
2019-05-20T20:06:16.106Z,18.30
2019-05-20T20:08:45.043Z,18.27
2019-05-20T20:11:13.959Z,15.33
2019-05-20T20:13:42.780Z,15.47
2019-05-20T20:16:11.427Z,14.50
2019-05-20T20:18:40.077Z,13.93
2019-05-20T20:21:08.688Z,14.73
2019-05-20T20:23:37.330Z,12.53
2019-05-20T20:26:05.990Z,16.07
2019-05-20T20:28:34.708Z,18.60
2019-05-20T20:31:03.279Z,20.10
2019-05-20T20:33:31.911Z,15.40
2019-05-20T20:36:00.496Z,17.70
2019-05-20T20:38:29.266Z,15.53
2019-05-20T20:40:57.885Z,15.00
2019-05-20T20:43:26.619Z,21.07
2019-05-20T20:45:55.201Z,16.73
2019-05-20T20:48:23.824Z,18.50
2019-05-20T20:50:52.459Z,17.13
2019-05-20T20:53:21.111Z,16.90
2019-05-20T20:55:49.691Z,15.77
2019-05-20T20:58:18.482Z,18.70
2019-05-20T21:00:49.119Z,17.63
2019-05-20T21:03:17.799Z,14.13
2019-05-20T21:05:46.375Z,15.63
2019-05-20T21:08:16.788Z,13.67
2019-05-20T21:10:45.394Z,12.30
2019-05-20T21:13:14.122Z,12.50
2019-05-20T21:15:42.786Z,13.23
2019-05-20T21:18:11.399Z,12.63
2019-05-20T21:20:39.980Z,13.60
2019-05-20T21:23:08.656Z,16.63
2019-05-20T21:25:37.228Z,12.00
2019-05-20T21:28:05.857Z,11.80
2019-05-20T21:30:35.015Z,12.27
2019-05-20T21:33:09.271Z,13.67
2019-05-20T21:35:35.203Z,14.50
2019-05-20T21:38:03.891Z,13.27
2019-05-20T21:40:32.494Z,12.13
2019-05-20T21:43:01.122Z,11.93
2019-05-20T21:45:29.791Z,13.60
2019-05-20T21:47:58.540Z,14.23
2019-05-20T21:50:27.110Z,11.53
2019-05-20T21:52:55.847Z,14.97
2019-05-20T21:55:24.427Z,17.10
2019-05-20T21:57:53.085Z,12.73
2019-05-20T22:00:27.544Z,14.57
2019-05-20T22:02:56.963Z,14.07
2019-05-20T22:05:25.635Z,17.03
2019-05-20T22:07:54.258Z,12.97
2019-05-20T22:10:22.852Z,11.80
2019-05-20T22:12:51.525Z,13.17
2019-05-20T22:15:20.104Z,13.53
2019-05-20T22:17:48.735Z,13.80
2019-05-20T22:20:17.385Z,14.80
2019-05-20T22:22:53.669Z,16.33
2019-05-20T22:25:22.331Z,14.53
2019-05-20T22:27:50.937Z,17.63
2019-05-20T22:30:19.625Z,14.60
2019-05-20T22:32:48.220Z,14.87
2019-05-20T22:35:16.856Z,16.97
2019-05-20T22:37:45.488Z,15.00
2019-05-20T22:40:14.252Z,14.27
2019-05-20T22:42:42.873Z,17.63
2019-05-20T22:45:11.531Z,12.97
2019-05-20T22:47:40.562Z,13.07
2019-05-20T22:50:09.224Z,17.27
2019-05-20T22:52:37.837Z,14.00
2019-05-20T22:55:06.523Z,13.77
2019-05-20T22:57:35.169Z,15.13
2019-05-20T23:00:04.611Z,15.90
2019-05-20T23:02:33.299Z,19.50
2019-05-20T23:05:01.930Z,14.03
2019-05-20T23:07:30.565Z,20.03
2019-05-20T23:09:59.153Z,13.27
2019-05-20T23:12:27.881Z,11.90
2019-05-20T23:14:56.487Z,15.03
2019-05-20T23:17:25.105Z,14.03
2019-05-20T23:19:53.705Z,19.13
2019-05-20T23:22:22.340Z,12.67
2019-05-20T23:24:50.923Z,17.07
2019-05-20T23:27:19.614Z,20.77
2019-05-20T23:29:48.582Z,14.33
2019-05-20T23:32:17.229Z,15.20
2019-05-20T23:34:45.901Z,13.17
2019-05-20T23:37:14.559Z,13.43
2019-05-20T23:39:43.225Z,13.63
2019-05-20T23:42:11.812Z,14.00
2019-05-20T23:44:40.555Z,14.00
2019-05-20T23:47:09.142Z,18.93
2019-05-20T23:49:37.836Z,14.60
2019-05-20T23:52:06.493Z,14.60
2019-05-20T23:54:35.183Z,15.43
2019-05-20T23:57:03.895Z,17.00
2019-05-20T23:59:33.648Z,19.00
